createdAt,value
2023-03-14T00:01:24.358Z,98722.02
2023-03-14T00:03:51.536Z,98721.35
2023-03-14T00:06:21.351Z,98706.02
2023-03-14T00:08:48.647Z,98706.71
2023-03-14T00:11:18.824Z,98705.92
2023-03-14T00:13:52.118Z,98706.01
2023-03-14T00:16:20.522Z,98701.48
2023-03-14T00:18:47.844Z,98700.09
2023-03-14T00:21:14.942Z,98696.36
2023-03-14T00:23:43.265Z,98697.91
2023-03-14T00:26:13.596Z,98688.28
2023-03-14T00:28:42.268Z,98681.95
2023-03-14T00:31:12.536Z,98677.11
2023-03-14T00:33:40.539Z,98671.80
2023-03-14T00:36:10.745Z,98669.16
2023-03-14T00:38:39.141Z,98661.84
2023-03-14T00:41:13.056Z,98666.48
2023-03-14T00:43:40.464Z,98661.23
2023-03-14T00:46:07.998Z,98654.19
2023-03-14T00:48:35.820Z,98652.67
2023-03-14T00:51:04.580Z,98646.84
2023-03-14T00:53:31.436Z,98649.70
2023-03-14T00:55:58.342Z,98641.29
2023-03-14T00:58:25.332Z,98640.70
2023-03-14T01:00:52.257Z,98630.81
2023-03-14T01:03:19.081Z,98620.91
2023-03-14T01:05:46.073Z,98609.36
2023-03-14T01:08:13.058Z,98609.45
2023-03-14T01:10:41.496Z,98612.83
2023-03-14T01:13:09.986Z,98610.05
2023-03-14T01:15:38.583Z,98609.70
2023-03-14T01:18:05.751Z,98607.48
2023-03-14T01:20:32.680Z,98609.28
2023-03-14T01:22:59.497Z,98598.88
2023-03-14T01:25:26.568Z,98591.08
2023-03-14T01:27:53.564Z,98580.02
2023-03-14T01:30:20.587Z,98584.81
2023-03-14T01:32:47.443Z,98588.66
2023-03-14T01:35:14.451Z,98592.57
2023-03-14T01:37:41.447Z,98593.46
2023-03-14T01:40:12.960Z,98598.39
2023-03-14T01:42:45.397Z,98596.33
2023-03-14T01:45:49.796Z,98596.84
2023-03-14T01:48:16.707Z,98594.70
2023-03-14T01:50:43.757Z,98588.98
2023-03-14T01:53:10.783Z,98582.32
2023-03-14T01:55:38.650Z,98581.92
2023-03-14T01:58:06.252Z,98586.69
2023-03-14T02:00:33.199Z,98590.52
2023-03-14T02:03:06.921Z,98590.33
2023-03-14T02:05:39.051Z,98591.23
2023-03-14T02:08:20.961Z,98591.26
2023-03-14T02:10:52.797Z,98593.05
2023-03-14T02:13:25.194Z,98589.14
2023-03-14T02:17:07.291Z,98578.59
2023-03-14T02:20:12.897Z,98571.71
2023-03-14T02:22:45.376Z,98569.87
2023-03-14T02:25:23.801Z,98565.74
2023-03-14T02:27:51.263Z,98563.80
2023-03-14T02:30:23.745Z,98557.15
2023-03-14T02:32:59.508Z,98557.38
2023-03-14T02:35:30.994Z,98559.48
2023-03-14T02:38:16.112Z,98555.08
2023-03-14T02:40:45.412Z,98549.79
2023-03-14T02:43:12.534Z,98540.81
2023-03-14T02:45:44.037Z,98528.80
2023-03-14T02:48:22.288Z,98524.34
2023-03-14T02:50:53.358Z,98520.68
2023-03-14T02:53:27.587Z,98514.54
2023-03-14T02:55:55.636Z,98502.94
2023-03-14T02:58:25.322Z,98502.60
2023-03-14T03:00:56.235Z,98502.39
2023-03-14T03:03:23.725Z,98506.73
2023-03-14T03:05:57.030Z,98514.88
2023-03-14T03:08:27.154Z,98515.61
2023-03-14T03:10:55.269Z,98510.58
2023-03-14T03:13:22.230Z,98515.24
2023-03-14T03:15:51.847Z,98510.19
2023-03-14T03:18:19.214Z,98513.52
2023-03-14T03:20:46.780Z,98518.92
2023-03-14T03:23:14.033Z,98512.74
2023-03-14T03:25:40.915Z,98513.55
2023-03-14T03:28:09.128Z,98511.34
2023-03-14T03:30:39.981Z,98508.19
2023-03-14T03:33:07.253Z,98506.52
2023-03-14T03:35:34.909Z,98509.45
2023-03-14T03:38:02.155Z,98511.30
2023-03-14T03:40:29.145Z,98506.45
2023-03-14T03:42:56.009Z,98495.26
2023-03-14T03:45:22.888Z,98483.41
2023-03-14T03:47:52.727Z,98475.98
2023-03-14T03:50:19.607Z,98476.88
2023-03-14T03:52:46.639Z,98485.38
2023-03-14T03:55:13.443Z,98491.60
2023-03-14T03:57:40.441Z,98496.88
2023-03-14T04:00:10.496Z,98493.26
2023-03-14T04:02:46.510Z,98482.84
2023-03-14T04:05:16.027Z,98478.16
2023-03-14T04:07:49.245Z,98476.34
2023-03-14T04:10:21.011Z,98477.56
2023-03-14T04:13:02.391Z,98481.26
2023-03-14T04:15:31.849Z,98477.74
2023-03-14T04:18:02.139Z,98474.14
2023-03-14T04:20:29.023Z,98479.98
2023-03-14T04:22:55.890Z,98474.21
2023-03-14T04:25:22.806Z,98468.64
2023-03-14T04:27:54.059Z,98468.66
2023-03-14T04:30:24.639Z,98465.52
2023-03-14T04:32:54.571Z,98469.71
2023-03-14T04:35:24.033Z,98467.73
2023-03-14T04:37:54.388Z,98469.67
2023-03-14T04:40:22.413Z,98479.77
2023-03-14T04:42:51.452Z,98488.52
2023-03-14T04:45:18.724Z,98485.08
2023-03-14T04:47:46.209Z,98492.41
2023-03-14T04:50:16.418Z,98497.75
2023-03-14T04:52:43.636Z,98495.85
2023-03-14T04:55:10.475Z,98492.46
2023-03-14T04:57:37.314Z,98490.38
2023-03-14T05:00:08.524Z,98485.12
2023-03-14T05:02:58.016Z,98476.27
2023-03-14T05:05:33.208Z,98465.17
2023-03-14T05:08:16.107Z,98458.23
2023-03-14T05:11:04.021Z,98451.73
2023-03-14T05:13:50.608Z,98439.82
2023-03-14T05:16:34.568Z,98430.70
2023-03-14T05:19:15.033Z,98435.17
2023-03-14T05:22:00.713Z,98434.11
2023-03-14T05:24:37.385Z,98435.73
2023-03-14T05:27:13.118Z,98434.56
2023-03-14T05:30:07.030Z,98420.02
2023-03-14T05:32:41.973Z,98404.21
2023-03-14T05:35:12.054Z,98392.09
2023-03-14T05:38:01.788Z,98387.19
2023-03-14T05:40:31.587Z,98403.41
2023-03-14T05:43:05.613Z,98417.62
2023-03-14T05:45:58.751Z,98423.96
2023-03-14T05:48:44.476Z,98419.36
2023-03-14T05:51:35.060Z,98424.34
2023-03-14T05:54:20.575Z,98412.24
2023-03-14T05:56:56.599Z,98398.05
2023-03-14T05:59:29.687Z,98397.66
2023-03-14T06:02:10.729Z,98397.85
2023-03-14T06:04:44.511Z,98394.67
2023-03-14T06:07:11.392Z,98389.16
2023-03-14T06:09:39.186Z,98382.96
2023-03-14T06:12:08.344Z,98375.48
2023-03-14T06:14:40.383Z,98369.23
2023-03-14T06:17:07.483Z,98374.13
2023-03-14T06:19:39.810Z,98372.05
2023-03-14T06:22:06.716Z,98373.35
2023-03-14T06:24:38.670Z,98376.02
2023-03-14T06:27:05.611Z,98363.02
2023-03-14T06:29:32.708Z,98363.14
2023-03-14T06:32:03.218Z,98358.71
2023-03-14T06:34:30.104Z,98359.33
2023-03-14T06:36:57.296Z,98355.23
2023-03-14T06:39:24.335Z,98353.47
2023-03-14T06:41:59.858Z,98354.64
2023-03-14T06:44:26.930Z,98350.80
2023-03-14T06:46:53.885Z,98358.06
2023-03-14T06:49:21.543Z,98347.02
2023-03-14T06:51:52.254Z,98336.45
2023-03-14T06:54:19.427Z,98338.35
2023-03-14T06:56:47.555Z,98340.60
2023-03-14T06:59:14.810Z,98339.82
2023-03-14T07:01:42.316Z,98345.94
2023-03-14T07:04:11.531Z,98347.13
2023-03-14T07:06:45.242Z,98353.61
2023-03-14T07:09:15.196Z,98347.88
2023-03-14T07:11:47.702Z,98349.27
2023-03-14T07:14:15.315Z,98345.98
2023-03-14T07:16:42.304Z,98342.79
2023-03-14T07:19:09.411Z,98345.45
2023-03-14T07:21:37.074Z,98350.05
2023-03-14T07:24:06.868Z,98348.30
2023-03-14T07:26:33.891Z,98342.57
2023-03-14T07:29:00.970Z,98346.39
2023-03-14T07:31:27.870Z,98343.87
2023-03-14T07:33:54.963Z,98343.80
2023-03-14T07:36:22.749Z,98343.70
2023-03-14T07:38:49.668Z,98343.80
2023-03-14T07:41:30.219Z,98331.59
2023-03-14T07:44:15.852Z,98314.83
2023-03-14T07:46:42.782Z,98319.77
2023-03-14T07:49:09.664Z,98336.14
2023-03-14T07:51:36.535Z,98342.32
2023-03-14T07:54:03.425Z,98343.53
2023-03-14T07:56:30.279Z,98342.27
2023-03-14T07:58:58.278Z,98337.53
2023-03-14T08:01:25.184Z,98341.13
2023-03-14T08:03:52.028Z,98344.12
2023-03-14T08:06:18.984Z,98348.62
2023-03-14T08:08:45.900Z,98347.15
2023-03-14T08:11:12.816Z,98345.44
2023-03-14T08:13:40.452Z,98342.08
2023-03-14T08:16:07.763Z,98338.02
2023-03-14T08:18:37.663Z,98339.70
2023-03-14T08:21:04.611Z,98351.20
2023-03-14T08:23:31.800Z,98343.08
2023-03-14T08:25:59.060Z,98337.11
2023-03-14T08:28:31.435Z,98337.98
2023-03-14T08:30:58.805Z,98341.54
2023-03-14T08:33:26.943Z,98338.65
2023-03-14T08:35:55.314Z,98337.83
2023-03-14T08:38:22.826Z,98346.79
2023-03-14T08:40:51.237Z,98344.45
2023-03-14T08:43:18.045Z,98346.88
2023-03-14T08:45:44.884Z,98343.42
2023-03-14T08:48:11.680Z,98343.52
2023-03-14T08:50:38.617Z,98344.33
2023-03-14T08:53:05.674Z,98347.02
2023-03-14T08:55:33.212Z,98354.81
2023-03-14T08:58:00.178Z,98346.50
2023-03-14T09:00:27.208Z,98348.56
2023-03-14T09:02:54.140Z,98344.67
2023-03-14T09:05:21.249Z,98352.31
2023-03-14T09:07:50.677Z,98334.15
2023-03-14T09:10:17.958Z,98329.00
2023-03-14T09:12:44.940Z,98321.23
2023-03-14T09:15:12.088Z,98310.78
2023-03-14T09:17:38.971Z,98315.44
2023-03-14T09:20:10.160Z,98305.51
2023-03-14T09:22:37.569Z,98303.42
2023-03-14T09:25:05.905Z,98308.72
2023-03-14T09:27:32.852Z,98307.23
2023-03-14T09:29:59.735Z,98292.52
2023-03-14T09:32:26.795Z,98287.82
2023-03-14T09:34:53.799Z,98287.08
2023-03-14T09:37:21.384Z,98277.05
2023-03-14T09:39:48.366Z,98274.76
2023-03-14T09:42:20.480Z,98272.65
2023-03-14T09:44:54.522Z,98272.83
2023-03-14T09:47:22.962Z,98276.48
2023-03-14T09:49:49.995Z,98270.91
2023-03-14T09:52:20.347Z,98270.63
2023-03-14T09:54:58.492Z,98262.25
2023-03-14T09:57:27.917Z,98259.36
2023-03-14T10:00:00.064Z,98258.33
2023-03-14T10:02:36.488Z,98257.63
2023-03-14T10:05:09.642Z,98250.71
2023-03-14T10:07:36.601Z,98241.90
2023-03-14T10:10:16.973Z,98242.70
2023-03-14T10:12:49.189Z,98245.43
2023-03-14T10:15:26.382Z,98246.51
2023-03-14T10:17:53.828Z,98242.89
2023-03-14T10:20:28.689Z,98234.63
2023-03-14T10:22:56.596Z,98243.39
2023-03-14T10:25:35.985Z,98234.14
2023-03-14T10:28:04.890Z,98247.33
2023-03-14T10:30:39.946Z,98251.48
2023-03-14T10:33:28.819Z,98245.23
2023-03-14T10:36:01.578Z,98233.22
2023-03-14T10:38:34.073Z,98218.21
2023-03-14T10:41:02.293Z,98218.66
2023-03-14T10:43:35.393Z,98213.05
2023-03-14T10:46:09.659Z,98217.14
2023-03-14T10:48:56.682Z,98223.99
2023-03-14T10:51:29.609Z,98229.57
2023-03-14T10:54:12.783Z,98221.05
2023-03-14T10:56:39.708Z,98220.11
2023-03-14T10:59:15.749Z,98226.66
2023-03-14T11:01:45.964Z,98223.30
2023-03-14T11:04:49.877Z,98212.61
2023-03-14T11:07:30.469Z,98209.36
2023-03-14T11:10:12.954Z,98210.52
2023-03-14T11:13:09.055Z,98223.20
2023-03-14T11:15:44.011Z,98219.53
2023-03-14T11:18:29.277Z,98224.59
2023-03-14T11:21:19.574Z,98220.86
2023-03-14T11:24:01.457Z,98217.07
2023-03-14T11:26:31.339Z,98222.53
2023-03-14T11:29:24.262Z,98224.67
2023-03-14T11:31:56.415Z,98228.52
2023-03-14T11:34:48.241Z,98225.98
2023-03-14T11:37:15.227Z,98229.11
2023-03-14T11:39:49.431Z,98225.88
2023-03-14T11:42:18.563Z,98227.77
2023-03-14T11:44:49.077Z,98223.88
2023-03-14T11:47:25.868Z,98218.20
2023-03-14T11:50:27.001Z,98200.37
2023-03-14T11:52:59.746Z,98197.50
2023-03-14T11:55:31.791Z,98196.39
2023-03-14T11:58:14.644Z,98200.06
2023-03-14T12:00:43.321Z,98200.70
2023-03-14T12:03:25.459Z,98199.80
2023-03-14T12:06:11.900Z,98200.84
2023-03-14T12:08:47.303Z,98193.02
2023-03-14T12:11:14.608Z,98195.44
2023-03-14T12:13:47.177Z,98194.73
2023-03-14T12:16:26.027Z,98197.45
2023-03-14T12:18:54.497Z,98196.86
2023-03-14T12:21:41.888Z,98206.46
2023-03-14T12:24:21.551Z,98215.09
2023-03-14T12:26:57.970Z,98206.41
2023-03-14T12:29:26.100Z,98201.15
2023-03-14T12:32:01.932Z,98187.01
2023-03-14T12:34:31.762Z,98183.80
2023-03-14T12:37:26.924Z,98198.81
2023-03-14T12:40:20.391Z,98201.66
2023-03-14T12:43:00.492Z,98201.58
2023-03-14T12:45:32.485Z,98210.26
2023-03-14T12:48:26.238Z,98204.17
2023-03-14T12:51:13.465Z,98208.38
2023-03-14T12:54:14.764Z,98211.75
2023-03-14T12:56:52.304Z,98206.86
2023-03-14T12:59:41.927Z,98206.17
2023-03-14T13:02:09.218Z,98200.13
2023-03-14T13:04:45.901Z,98198.81
2023-03-14T13:07:34.440Z,98207.07
2023-03-14T13:13:02.743Z,98200.11
2023-03-14T13:15:35.791Z,98202.77
2023-03-14T13:18:11.354Z,98206.04
2023-03-14T13:20:44.177Z,98208.84
2023-03-14T13:23:25.805Z,98206.19
2023-03-14T13:25:53.968Z,98209.73
2023-03-14T13:28:21.640Z,98210.84
2023-03-14T13:30:51.530Z,98217.61
2023-03-14T13:33:21.450Z,98218.58
2023-03-14T13:35:50.237Z,98230.98
2023-03-14T13:38:26.031Z,98234.91
2023-03-14T13:41:00.588Z,98239.43
2023-03-14T13:43:33.591Z,98241.45
2023-03-14T13:46:08.354Z,98248.33
2023-03-14T13:48:44.389Z,98250.05
2023-03-14T13:51:14.701Z,98253.74
2023-03-14T13:53:51.779Z,98262.37
2023-03-14T13:56:20.466Z,98256.19
2023-03-14T13:58:47.745Z,98259.70
2023-03-14T14:01:36.358Z,98268.77
2023-03-14T14:04:16.312Z,98268.39
2023-03-14T14:06:49.403Z,98265.40
2023-03-14T14:09:22.028Z,98266.89
2023-03-14T14:12:14.429Z,98267.09
2023-03-14T14:14:51.355Z,98275.84
2023-03-14T14:17:34.240Z,98277.34
2023-03-14T14:20:05.840Z,98273.37
2023-03-14T14:22:34.021Z,98271.37
2023-03-14T14:25:03.071Z,98271.23
2023-03-14T14:27:40.448Z,98264.69
2023-03-14T14:30:19.614Z,98261.02
2023-03-14T14:32:50.525Z,98267.33
2023-03-14T14:35:35.893Z,98267.19
2023-03-14T14:38:10.013Z,98267.29
2023-03-14T14:40:46.769Z,98263.15
2023-03-14T14:43:19.916Z,98254.52
2023-03-14T14:45:51.154Z,98244.80
2023-03-14T14:48:22.783Z,98242.53
2023-03-14T14:50:58.456Z,98239.26
2023-03-14T14:53:45.775Z,98242.23
2023-03-14T14:56:23.662Z,98243.42
2023-03-14T14:58:50.779Z,98242.03
2023-03-14T15:01:24.284Z,98238.20
2023-03-14T15:03:54.223Z,98235.00
2023-03-14T15:06:21.799Z,98231.25
2023-03-14T15:08:50.196Z,98223.52
2023-03-14T15:11:20.455Z,98226.41
2023-03-14T15:13:50.483Z,98228.91
2023-03-14T15:16:21.776Z,98228.20
2023-03-14T15:19:03.273Z,98229.98
2023-03-14T15:21:34.819Z,98230.69
2023-03-14T15:24:02.246Z,98232.02
2023-03-14T15:26:30.504Z,98246.86
2023-03-14T15:28:57.711Z,98255.91
2023-03-14T15:31:24.814Z,98258.66
2023-03-14T15:33:51.953Z,98266.64
2023-03-14T15:36:28.772Z,98270.79
2023-03-14T15:38:57.123Z,98272.35
2023-03-14T15:41:24.534Z,98263.98
2023-03-14T15:43:52.609Z,98259.67
2023-03-14T15:46:20.137Z,98264.45
2023-03-14T15:48:47.483Z,98279.77
2023-03-14T15:51:15.209Z,98281.25
2023-03-14T15:53:44.412Z,98280.46
2023-03-14T15:56:17.507Z,98272.01
2023-03-14T15:58:47.736Z,98274.65
2023-03-14T16:01:17.323Z,98274.10
2023-03-14T16:03:46.374Z,98271.74
2023-03-14T16:06:14.790Z,98268.29
2023-03-14T16:08:43.618Z,98279.22
2023-03-14T16:11:12.695Z,98294.63
2023-03-14T16:13:40.170Z,98304.95
2023-03-14T16:16:08.866Z,98304.46
2023-03-14T16:18:38.644Z,98304.13
2023-03-14T16:21:18.295Z,98301.21
2023-03-14T16:23:46.426Z,98309.05
2023-03-14T16:26:19.281Z,98313.80
2023-03-14T16:28:48.319Z,98307.84
2023-03-14T16:31:18.711Z,98303.75
2023-03-14T16:33:45.960Z,98308.02
2023-03-14T16:36:14.726Z,98301.38
2023-03-14T16:38:43.919Z,98304.71
2023-03-14T16:41:20.114Z,98308.06
2023-03-14T16:43:52.318Z,98304.55
2023-03-14T16:46:22.778Z,98303.21
2023-03-14T16:48:50.126Z,98310.09
2023-03-14T16:51:17.848Z,98310.65
2023-03-14T16:53:46.342Z,98305.11
2023-03-14T16:56:14.650Z,98308.84
2023-03-14T16:58:42.696Z,98306.79
2023-03-14T17:01:12.721Z,98314.14
2023-03-14T17:03:45.724Z,98317.98
2023-03-14T17:06:15.607Z,98314.85
2023-03-14T17:08:43.398Z,98308.70
2023-03-14T17:11:11.359Z,98301.14
2023-03-14T17:13:39.354Z,98296.63
2023-03-14T17:16:07.189Z,98296.79
2023-03-14T17:18:36.848Z,98301.16
2023-03-14T17:21:05.046Z,98306.30
2023-03-14T17:23:33.525Z,98315.05
2023-03-14T17:26:00.978Z,98309.83
2023-03-14T17:28:28.376Z,98302.95
2023-03-14T17:31:09.783Z,98306.00
2023-03-14T17:33:37.558Z,98307.80
2023-03-14T17:36:08.296Z,98309.69
2023-03-14T17:38:36.962Z,98306.64
2023-03-14T17:41:08.057Z,98311.95
2023-03-14T17:43:35.466Z,98314.23
2023-03-14T17:46:14.643Z,98317.41
2023-03-14T17:48:43.211Z,98318.64
2023-03-14T17:51:11.470Z,98312.86
2023-03-14T17:53:39.365Z,98313.41
2023-03-14T17:56:07.545Z,98308.44
2023-03-14T17:58:37.786Z,98302.02
2023-03-14T18:01:19.747Z,98314.03
2023-03-14T18:03:48.365Z,98317.31
2023-03-14T18:06:17.970Z,98318.80
2023-03-14T18:08:46.991Z,98321.30
2023-03-14T18:11:14.426Z,98326.38
2023-03-14T18:13:42.403Z,98329.29
2023-03-14T18:16:15.516Z,98328.13
2023-03-14T18:18:49.525Z,98330.71
2023-03-14T18:21:19.958Z,98336.59
2023-03-14T18:23:48.935Z,98332.85
2023-03-14T18:26:16.129Z,98328.02
2023-03-14T18:28:43.235Z,98328.04
2023-03-14T18:31:13.284Z,98330.17
2023-03-14T18:33:45.608Z,98324.56
2023-03-14T18:36:13.293Z,98324.19
2023-03-14T18:38:43.874Z,98327.25
2023-03-14T18:41:14.161Z,98332.20
2023-03-14T18:43:42.300Z,98332.13
2023-03-14T18:46:12.895Z,98335.64
2023-03-14T18:48:42.757Z,98333.54
2023-03-14T18:51:15.593Z,98333.85
2023-03-14T18:53:43.756Z,98335.02
2023-03-14T18:56:14.089Z,98337.67
2023-03-14T18:58:41.878Z,98342.45
2023-03-14T19:01:10.632Z,98349.34
2023-03-14T19:03:38.104Z,98349.34
2023-03-14T19:06:07.953Z,98349.32
2023-03-14T19:08:36.801Z,98354.61
2023-03-14T19:11:06.178Z,98357.69
2023-03-14T19:13:35.341Z,98367.89
2023-03-14T19:16:04.372Z,98368.42
2023-03-14T19:18:33.420Z,98367.13
2023-03-14T19:21:09.167Z,98369.58
2023-03-14T19:23:38.328Z,98370.33
2023-03-14T19:26:07.113Z,98371.38
2023-03-14T19:28:34.248Z,98369.14
2023-03-14T19:31:05.498Z,98368.39
2023-03-14T19:33:33.237Z,98367.73
2023-03-14T19:36:02.785Z,98369.88
2023-03-14T19:38:29.987Z,98372.31
2023-03-14T19:40:59.028Z,98369.55
2023-03-14T19:43:27.014Z,98368.48
2023-03-14T19:45:56.062Z,98368.75
2023-03-14T19:48:30.720Z,98365.59
2023-03-14T19:51:00.300Z,98370.55
2023-03-14T19:53:29.229Z,98375.11
2023-03-14T19:55:56.366Z,98378.34
2023-03-14T19:58:25.051Z,98377.91
2023-03-14T20:00:52.365Z,98374.43
2023-03-14T20:03:19.649Z,98378.70
2023-03-14T20:05:46.762Z,98376.25
2023-03-14T20:08:13.984Z,98377.26
2023-03-14T20:10:41.449Z,98375.08
2023-03-14T20:13:20.845Z,98372.55
2023-03-14T20:15:48.832Z,98372.02
2023-03-14T20:18:15.814Z,98368.84
2023-03-14T20:20:42.912Z,98364.28
2023-03-14T20:23:10.631Z,98369.57
2023-03-14T20:25:38.082Z,98375.79
2023-03-14T20:28:05.569Z,98373.61
2023-03-14T20:30:33.390Z,98377.20
2023-03-14T20:33:04.890Z,98379.61
2023-03-14T20:35:32.598Z,98383.62
2023-03-14T20:37:59.713Z,98385.30
2023-03-14T20:40:28.995Z,98390.05
2023-03-14T20:42:56.858Z,98387.54
2023-03-14T20:45:23.842Z,98385.86
2023-03-14T20:47:51.212Z,98382.80
2023-03-14T20:50:18.457Z,98377.95
2023-03-14T20:52:45.560Z,98379.31
2023-03-14T20:55:12.991Z,98376.84
2023-03-14T20:57:39.867Z,98372.60
2023-03-14T21:00:08.426Z,98369.52
2023-03-14T21:05:20.593Z,98374.77
2023-03-14T21:07:48.082Z,98375.80
2023-03-14T21:10:15.360Z,98375.95
2023-03-14T21:12:42.494Z,98378.38
2023-03-14T21:15:10.403Z,98374.13
2023-03-14T21:17:39.731Z,98377.73
2023-03-14T21:20:11.597Z,98374.77
2023-03-14T21:22:38.925Z,98372.06
2023-03-14T21:25:09.425Z,98373.27
2023-03-14T21:27:39.964Z,98375.84
2023-03-14T21:30:08.556Z,98376.19
2023-03-14T21:32:35.524Z,98381.52
2023-03-14T21:35:02.564Z,98380.88
2023-03-14T21:37:29.583Z,98387.02
2023-03-14T21:39:56.813Z,98383.89
2023-03-14T21:42:24.677Z,98379.14
2023-03-14T21:44:52.439Z,98382.16
2023-03-14T21:47:23.832Z,98382.38
2023-03-14T21:49:52.127Z,98381.17
2023-03-14T21:52:19.097Z,98382.31
2023-03-14T21:54:46.050Z,98383.52
2023-03-14T21:57:14.818Z,98388.67
2023-03-14T21:59:44.253Z,98391.20
2023-03-14T22:02:15.272Z,98396.22
2023-03-14T22:04:45.452Z,98399.71
2023-03-14T22:07:17.334Z,98393.38
2023-03-14T22:09:46.062Z,98396.09
2023-03-14T22:12:19.940Z,98389.98
2023-03-14T22:14:48.360Z,98385.99
2023-03-14T22:17:16.370Z,98387.84
2023-03-14T22:19:43.687Z,98391.04
2023-03-14T22:22:10.733Z,98402.13
2023-03-14T22:24:37.791Z,98399.80
2023-03-14T22:27:05.082Z,98404.13
2023-03-14T22:29:37.906Z,98405.16
2023-03-14T22:32:06.729Z,98407.29
2023-03-14T22:34:36.724Z,98405.61
2023-03-14T22:37:06.268Z,98405.41
2023-03-14T22:39:33.966Z,98402.23
2023-03-14T22:42:01.387Z,98402.77
2023-03-14T22:44:33.217Z,98405.05
2023-03-14T22:47:02.543Z,98407.89
2023-03-14T22:49:33.196Z,98405.97
2023-03-14T22:52:00.143Z,98408.56
2023-03-14T22:54:28.054Z,98408.59
2023-03-14T22:56:55.017Z,98406.21
2023-03-14T22:59:21.982Z,98403.04
2023-03-14T23:01:48.939Z,98408.38
2023-03-14T23:04:16.080Z,98409.20
2023-03-14T23:06:43.182Z,98413.05
2023-03-14T23:09:12.229Z,98415.41
2023-03-14T23:11:40.296Z,98412.85
2023-03-14T23:14:07.779Z,98417.45
2023-03-14T23:16:40.622Z,98420.19
2023-03-14T23:19:10.017Z,98423.48
2023-03-14T23:21:37.367Z,98431.53
2023-03-14T23:24:06.295Z,98432.03
2023-03-14T23:26:35.645Z,98431.12
2023-03-14T23:29:07.402Z,98424.90
2023-03-14T23:31:34.576Z,98431.38
2023-03-14T23:34:01.541Z,98433.42
2023-03-14T23:36:28.388Z,98439.20
2023-03-14T23:38:55.261Z,98441.57
2023-03-14T23:41:22.205Z,98448.30
2023-03-14T23:43:49.418Z,98456.48
2023-03-14T23:46:17.394Z,98463.87
2023-03-14T23:48:47.330Z,98466.38
2023-03-14T23:51:15.519Z,98467.47
2023-03-14T23:53:43.107Z,98468.35
2023-03-14T23:56:12.808Z,98469.86
2023-03-14T23:58:41.051Z,98469.48
